Time;durP1;ratioP1;P1;durP2;ratioP2;P2;SDS_P1;SDS_P2;PMS_P1;PMS_P2;Temp;Humidity;BMP_temperature;BMP_pressure;BME280_temperature;BME280_humidity;BME280_pressure;Samples;Min_cycle;Max_cycle;Signal;HPM_P1;HPM_P2
2023/07/10 00:00:52;;;;;;;18.15;9.00;;;18.10;99.90;;;;;;5064141;28;20115;-79
2023/07/10 00:03:18;;;;;;;21.13;9.60;;;18.10;99.90;;;;;;5060011;28;20166;-80
2023/07/10 00:05:44;;;;;;;17.75;9.63;;;18.10;99.90;;;;;;5046003;28;20044;-80
2023/07/10 00:08:10;;;;;;;18.80;9.48;;;18.10;99.90;;;;;;5063988;28;20044;-78
2023/07/10 00:10:36;;;;;;;18.52;9.85;;;18.10;99.90;;;;;;5044500;28;20380;-80
2023/07/10 00:13:02;;;;;;;20.75;8.75;;;18.10;99.90;;;;;;5063652;28;20049;-79
2023/07/10 00:15:29;;;;;;;19.35;8.68;;;18.10;99.90;;;;;;5064154;28;20097;-78
2023/07/10 00:17:54;;;;;;;17.27;9.23;;;18.20;99.90;;;;;;5029845;28;20122;-79
2023/07/10 00:20:29;;;;;;;20.85;8.82;;;18.20;99.90;;;;;;5044338;28;20096;-80
2023/07/10 00:22:55;;;;;;;19.75;9.30;;;18.20;99.90;;;;;;5047728;28;20043;-79
2023/07/10 00:25:21;;;;;;;17.80;9.25;;;18.20;99.90;;;;;;5063308;28;20495;-80
2023/07/10 00:27:48;;;;;;;15.55;8.85;;;18.20;99.90;;;;;;5045471;28;20041;-78
2023/07/10 00:30:21;;;;;;;16.08;7.75;;;18.10;99.90;;;;;;5045136;28;20051;-79
2023/07/10 00:32:52;;;;;;;15.40;8.80;;;18.10;99.90;;;;;;5028888;28;20040;-78
2023/07/10 00:35:23;;;;;;;18.33;9.10;;;18.10;99.90;;;;;;5045256;28;20574;-79
2023/07/10 00:38:00;;;;;;;17.08;8.60;;;18.10;99.90;;;;;;5062799;28;20275;-78
2023/07/10 00:40:33;;;;;;;14.25;8.43;;;18.10;99.90;;;;;;5045426;28;20049;-79
2023/07/10 00:43:10;;;;;;;17.40;8.48;;;18.10;99.90;;;;;;5064149;28;20137;-80
2023/07/10 00:45:35;;;;;;;16.40;7.03;;;18.10;99.90;;;;;;5028830;28;20045;-80
2023/07/10 00:48:10;;;;;;;15.65;7.47;;;18.10;99.90;;;;;;5041684;28;20522;-79
2023/07/10 00:50:45;;;;;;;17.25;7.55;;;18.10;99.90;;;;;;5043400;28;20809;-79
2023/07/10 00:53:38;;;;;;;12.63;8.30;;;18.10;99.90;;;;;;5041097;28;20036;-79
2023/07/10 00:56:11;;;;;;;15.93;6.95;;;18.00;99.90;;;;;;5044265;28;20210;-78
2023/07/10 00:58:40;;;;;;;14.07;6.75;;;18.00;99.90;;;;;;5063938;28;20455;-80
2023/07/10 01:01:15;;;;;;;15.40;7.32;;;18.00;99.90;;;;;;5063246;28;20059;-78
2023/07/10 01:03:43;;;;;;;12.82;6.65;;;18.00;99.90;;;;;;5043354;28;20037;-80
2023/07/10 01:06:14;;;;;;;11.45;5.63;;;18.10;99.90;;;;;;5043715;28;20037;-78
2023/07/10 01:08:43;;;;;;;10.80;5.68;;;18.00;99.90;;;;;;5025101;28;20398;-79
2023/07/10 01:11:09;;;;;;;7.35;4.93;;;18.00;99.90;;;;;;5061694;28;20048;-78
2023/07/10 01:13:37;;;;;;;8.93;5.45;;;17.90;99.90;;;;;;5063380;28;20719;-78
2023/07/10 01:16:03;;;;;;;10.50;5.75;;;17.90;99.90;;;;;;5062722;28;20043;-78
2023/07/10 01:18:29;;;;;;;9.00;5.28;;;17.80;99.90;;;;;;5038169;28;20045;-80
2023/07/10 01:21:12;;;;;;;8.10;5.05;;;17.80;99.90;;;;;;5044009;28;20044;-78
2023/07/10 01:23:37;;;;;;;8.02;6.07;;;17.80;99.90;;;;;;5053947;28;20119;-78
2023/07/10 01:26:06;;;;;;;10.98;5.10;;;17.80;99.90;;;;;;5048220;28;20127;-80
2023/07/10 01:28:35;;;;;;;9.52;4.75;;;17.80;99.90;;;;;;5049774;28;20063;-80
2023/07/10 01:31:04;;;;;;;8.18;4.88;;;17.70;99.90;;;;;;5066898;28;20071;-78
2023/07/10 01:33:36;;;;;;;12.15;5.57;;;17.80;99.90;;;;;;5051910;28;20044;-79
2023/07/10 01:36:03;;;;;;;;;;;17.70;99.90;;;;;;5049392;28;20048;-78
2023/07/10 01:38:50;;;;;;;11.95;5.03;;;17.80;99.90;;;;;;5049312;28;19920;-78
2023/07/10 01:41:20;;;;;;;21.42;5.90;;;17.80;99.90;;;;;;5047759;28;20040;-78
2023/07/10 01:43:46;;;;;;;6.35;4.53;;;17.80;99.90;;;;;;5012322;28;20053;-78
2023/07/10 01:46:27;;;;;;;8.50;5.38;;;17.80;99.90;;;;;;5020527;28;20055;-79
2023/07/10 01:48:56;;;;;;;12.65;5.72;;;17.70;99.90;;;;;;5048977;28;20479;-78
2023/07/10 01:51:22;;;;;;;7.35;5.35;;;17.70;99.90;;;;;;5049403;28;20052;-78
2023/07/10 01:53:48;;;;;;;10.30;5.70;;;17.70;99.90;;;;;;5029175;28;20033;-78
2023/07/10 01:56:16;;;;;;;9.20;5.60;;;17.70;99.90;;;;;;5049846;28;20056;-80
2023/07/10 01:58:42;;;;;;;10.07;5.35;;;17.70;99.90;;;;;;5032202;28;20044;-78
2023/07/10 02:01:08;;;;;;;8.32;4.68;;;17.60;99.90;;;;;;5047903;28;20051;-78
2023/07/10 02:03:34;;;;;;;10.70;5.53;;;17.60;99.90;;;;;;5035482;28;20072;-78
2023/07/10 02:06:00;;;;;;;6.25;4.18;;;17.60;99.90;;;;;;5048656;28;20118;-79
2023/07/10 02:08:25;;;;;;;9.38;4.70;;;17.60;99.90;;;;;;5049025;28;20394;-78
2023/07/10 02:10:51;;;;;;;8.15;4.68;;;17.50;99.90;;;;;;5065473;28;20693;-78
2023/07/10 02:13:17;;;;;;;9.07;5.72;;;17.50;99.90;;;;;;5031879;28;20060;-80
2023/07/10 02:15:43;;;;;;;11.93;5.63;;;17.50;99.90;;;;;;5066655;28;20414;-77
2023/07/10 02:18:08;;;;;;;13.00;6.70;;;17.40;99.90;;;;;;5065718;28;20055;-79
2023/07/10 02:20:34;;;;;;;11.07;6.07;;;17.40;99.90;;;;;;5048153;28;20071;-79
2023/07/10 02:22:59;;;;;;;15.20;7.65;;;17.40;99.90;;;;;;5047841;28;20040;-82
2023/07/10 02:25:25;;;;;;;14.30;8.90;;;17.40;99.90;;;;;;5030796;28;20040;-78
2023/07/10 02:27:51;;;;;;;14.55;7.72;;;17.40;99.90;;;;;;5048435;28;20041;-79
2023/07/10 02:30:17;;;;;;;17.50;8.15;;;17.40;99.90;;;;;;5048340;28;20494;-78
2023/07/10 02:32:42;;;;;;;13.15;7.88;;;17.40;99.90;;;;;;5048222;28;20041;-78
2023/07/10 02:35:09;;;;;;;15.40;6.40;;;17.40;99.90;;;;;;5064603;28;20039;-78
2023/07/10 02:37:34;;;;;;;14.98;6.88;;;17.40;99.90;;;;;;5065967;28;20041;-80
2023/07/10 02:40:00;;;;;;;10.02;5.30;;;17.30;99.90;;;;;;5065027;28;20518;-79
2023/07/10 02:42:27;;;;;;;7.47;5.10;;;17.30;99.90;;;;;;5048290;28;20087;-78
2023/07/10 02:44:52;;;;;;;10.43;6.25;;;17.30;99.90;;;;;;5047465;28;20037;-80
2023/07/10 02:47:18;;;;;;;8.63;5.65;;;17.20;99.90;;;;;;5017481;28;20045;-79
2023/07/10 02:49:44;;;;;;;11.15;6.18;;;17.20;99.90;;;;;;5046029;28;20475;-78
2023/07/10 02:52:09;;;;;;;8.90;5.22;;;17.20;99.90;;;;;;5065140;28;20109;-79
2023/07/10 02:54:35;;;;;;;7.80;4.88;;;17.20;99.90;;;;;;5065539;28;20383;-81
2023/07/10 02:57:01;;;;;;;9.77;4.70;;;17.10;99.90;;;;;;5064949;28;20089;-78
2023/07/10 02:59:27;;;;;;;5.40;4.22;;;17.10;99.90;;;;;;5047432;28;20044;-79
2023/07/10 03:01:53;;;;;;;6.88;4.28;;;17.00;99.90;;;;;;5041226;28;20484;-80
2023/07/10 03:04:19;;;;;;;5.43;3.83;;;17.00;99.90;;;;;;5038052;28;20036;-77
2023/07/10 03:06:47;;;;;;;6.70;3.58;;;17.00;99.90;;;;;;5064823;28;20127;-78
2023/07/10 03:09:14;;;;;;;5.90;3.60;;;17.00;99.90;;;;;;5065349;28;20033;-78
2023/07/10 03:11:39;;;;;;;5.45;3.20;;;17.00;99.90;;;;;;5046679;28;20209;-78
2023/07/10 03:14:05;;;;;;;5.38;3.53;;;16.90;99.90;;;;;;5047349;28;20526;-78
2023/07/10 03:16:31;;;;;;;7.25;3.22;;;17.00;99.90;;;;;;5065265;28;20041;-78
2023/07/10 03:18:57;;;;;;;2.80;2.30;;;16.90;99.90;;;;;;5065757;28;20124;-80
2023/07/10 03:21:22;;;;;;;6.43;3.15;;;16.90;99.90;;;;;;5047127;28;20123;-78
2023/07/10 03:23:49;;;;;;;4.28;3.03;;;16.90;99.90;;;;;;5030528;28;20043;-78
2023/07/10 03:26:14;;;;;;;5.68;2.88;;;16.90;99.90;;;;;;5046102;28;20055;-79
2023/07/10 03:28:40;;;;;;;5.43;3.92;;;16.90;99.90;;;;;;5065535;28;20037;-77
2023/07/10 03:31:06;;;;;;;5.85;3.05;;;16.90;99.90;;;;;;5064248;28;20044;-79
2023/07/10 03:33:32;;;;;;;3.63;2.35;;;16.80;99.90;;;;;;5029934;28;20040;-78
2023/07/10 03:36:04;;;;;;;5.22;3.42;;;16.80;99.90;;;;;;5028022;28;20033;-78
2023/07/10 03:38:30;;;;;;;5.97;2.70;;;16.80;99.90;;;;;;5026539;28;20098;-80
2023/07/10 03:40:57;;;;;;;6.82;3.20;;;16.80;99.90;;;;;;5046373;28;20044;-78
2023/07/10 03:43:24;;;;;;;4.97;2.97;;;16.80;99.90;;;;;;5046387;28;20128;-78
2023/07/10 03:45:49;;;;;;;6.00;2.22;;;16.80;99.90;;;;;;5026707;28;20534;-80
2023/07/10 03:48:16;;;;;;;5.95;2.83;;;16.80;99.90;;;;;;5051115;28;20032;-79
2023/07/10 03:50:41;;;;;;;6.20;3.35;;;16.80;99.90;;;;;;5029976;28;20040;-78
2023/07/10 03:53:07;;;;;;;3.60;2.20;;;16.80;99.90;;;;;;5064081;28;20094;-78
2023/07/10 03:55:33;;;;;;;4.20;3.00;;;16.80;99.90;;;;;;5063568;28;20035;-79
2023/07/10 03:57:58;;;;;;;7.88;3.10;;;16.80;99.90;;;;;;5047059;28;20044;-78
2023/07/10 04:00:24;;;;;;;5.13;3.22;;;16.80;99.90;;;;;;5041790;28;20076;-77
2023/07/10 04:02:50;;;;;;;7.03;3.00;;;16.80;99.90;;;;;;5058786;28;20094;-78
2023/07/10 04:05:15;;;;;;;5.30;3.20;;;16.80;99.90;;;;;;5035602;28;20075;-78
2023/07/10 04:07:41;;;;;;;6.80;2.95;;;16.80;99.90;;;;;;5051124;28;20032;-78
2023/07/10 04:10:07;;;;;;;6.18;3.65;;;16.80;99.90;;;;;;5062955;28;20040;-79
2023/07/10 04:12:33;;;;;;;6.35;3.92;;;16.80;99.90;;;;;;5046372;28;20052;-79
2023/07/10 04:14:58;;;;;;;9.20;3.55;;;16.80;99.90;;;;;;5064542;28;20130;-78
2023/07/10 04:17:24;;;;;;;10.55;3.78;;;16.80;99.90;;;;;;5045474;28;20028;-78
2023/07/10 04:19:50;;;;;;;8.13;3.33;;;16.80;99.90;;;;;;5046548;28;20483;-80
2023/07/10 04:22:16;;;;;;;6.25;3.38;;;16.90;99.90;;;;;;5045560;28;20098;-77
2023/07/10 04:24:41;;;;;;;7.60;3.10;;;16.90;99.90;;;;;;5044807;28;20450;-78
2023/07/10 04:27:08;;;;;;;9.65;3.30;;;16.90;99.90;;;;;;5045610;28;20383;-79
2023/07/10 04:29:34;;;;;;;4.88;2.85;;;16.90;99.90;;;;;;5064051;28;20086;-77
2023/07/10 04:32:00;;;;;;;7.68;3.42;;;17.00;99.90;;;;;;5062988;28;20068;-79
2023/07/10 04:34:25;;;;;;;5.35;3.17;;;16.90;99.90;;;;;;5057765;28;20037;-78
2023/07/10 04:36:51;;;;;;;8.57;3.55;;;17.00;99.90;;;;;;5044189;28;20037;-78
2023/07/10 04:39:16;;;;;;;6.78;3.72;;;17.00;99.90;;;;;;5030499;28;20071;-81
2023/07/10 04:41:44;;;;;;;10.02;2.90;;;17.00;99.90;;;;;;5045074;28;20028;-78
2023/07/10 04:44:10;;;;;;;6.00;3.03;;;17.00;99.90;;;;;;5045274;28;20499;-79
2023/07/10 04:46:36;;;;;;;4.07;2.72;;;17.00;99.90;;;;;;5046030;28;20043;-78
2023/07/10 04:49:02;;;;;;;4.57;2.88;;;17.00;99.90;;;;;;5063100;28;20040;-78
2023/07/10 04:51:27;;;;;;;8.52;2.90;;;17.10;99.90;;;;;;5029562;28;20040;-79
2023/07/10 04:53:53;;;;;;;6.30;2.20;;;17.10;99.90;;;;;;5063419;28;20085;-78
2023/07/10 04:56:19;;;;;;;5.22;3.17;;;17.10;99.90;;;;;;5062156;28;20048;-77
2023/07/10 04:58:57;;;;;;;3.95;3.05;;;17.10;99.90;;;;;;5063135;28;20046;-79
2023/07/10 05:01:26;;;;;;;6.53;2.67;;;17.20;99.90;;;;;;5027790;28;20044;-79
2023/07/10 05:03:52;;;;;;;6.47;3.17;;;17.20;99.90;;;;;;5049269;28;20500;-79
2023/07/10 05:06:18;;;;;;;5.63;2.88;;;17.20;99.90;;;;;;5042487;28;20074;-80
2023/07/10 05:08:44;;;;;;;8.02;2.65;;;17.20;99.90;;;;;;5043977;28;20129;-79
2023/07/10 05:11:10;;;;;;;6.63;3.40;;;17.20;99.90;;;;;;5042605;28;20069;-79
2023/07/10 05:13:36;;;;;;;7.82;3.35;;;17.20;99.90;;;;;;5043239;28;20040;-79
2023/07/10 05:16:02;;;;;;;6.13;2.95;;;17.20;99.90;;;;;;5043676;28;20178;-79
2023/07/10 05:18:29;;;;;;;10.25;3.30;;;17.20;99.90;;;;;;5009632;28;20045;-78
2023/07/10 05:20:55;;;;;;;6.85;3.33;;;17.30;99.90;;;;;;5039878;28;20047;-78
2023/07/10 05:23:21;;;;;;;4.40;2.88;;;17.30;99.90;;;;;;5045088;28;20442;-79
2023/07/10 05:26:04;;;;;;;8.10;3.53;;;17.30;99.90;;;;;;5052988;28;20039;-79
2023/07/10 05:28:30;;;;;;;5.22;3.20;;;17.30;99.90;;;;;;5083852;28;20047;-80
2023/07/10 05:31:00;;;;;;;9.88;3.10;;;17.30;99.90;;;;;;5072630;28;20036;-79
2023/07/10 05:33:26;;;;;;;7.22;3.72;;;17.30;99.90;;;;;;5063882;28;20041;-80
2023/07/10 05:35:57;;;;;;;7.30;3.13;;;17.30;99.90;;;;;;5048504;28;20048;-80
2023/07/10 05:38:25;;;;;;;5.28;2.97;;;17.30;99.90;;;;;;5062760;28;20070;-80
2023/07/10 05:40:52;;;;;;;7.82;3.08;;;17.40;99.90;;;;;;5067404;28;20040;-79
2023/07/10 05:43:18;;;;;;;9.30;3.67;;;17.40;99.90;;;;;;5051981;28;20122;-80
2023/07/10 05:45:44;;;;;;;8.07;3.13;;;17.40;99.90;;;;;;5059101;28;20045;-80
2023/07/10 05:48:10;;;;;;;4.80;3.28;;;17.40;99.90;;;;;;5063309;28;20032;-79
2023/07/10 05:50:35;;;;;;;9.55;3.20;;;17.50;99.90;;;;;;5063199;28;20044;-80
2023/07/10 05:53:01;;;;;;;9.13;3.17;;;17.50;99.90;;;;;;5044115;28;20483;-80
2023/07/10 05:55:27;;;;;;;10.00;3.67;;;17.60;99.90;;;;;;5042855;28;20040;-80
2023/07/10 05:57:53;;;;;;;7.93;2.65;;;17.70;99.90;;;;;;5063078;28;20040;-81
2023/07/10 06:00:19;;;;;;;7.03;3.00;;;17.70;99.90;;;;;;5060681;28;20055;-80
2023/07/10 06:02:44;;;;;;;4.88;2.80;;;17.70;99.90;;;;;;5042884;28;20028;-81
2023/07/10 06:05:10;;;;;;;4.88;2.67;;;17.70;99.90;;;;;;5062232;28;20044;-81
2023/07/10 06:07:36;;;;;;;7.65;2.67;;;17.70;99.90;;;;;;5044003;28;20509;-80
2023/07/10 06:10:01;;;;;;;10.90;3.03;;;17.80;99.90;;;;;;5044298;28;20513;-80
2023/07/10 06:12:27;;;;;;;5.15;2.92;;;17.80;99.90;;;;;;5048068;28;20056;-79
2023/07/10 06:14:52;;;;;;;4.85;2.80;;;17.90;99.90;;;;;;5047651;28;20190;-80
2023/07/10 06:17:18;;;;;;;5.47;2.40;;;17.90;99.90;;;;;;5063636;28;20678;-80
2023/07/10 06:19:44;;;;;;;9.07;2.60;;;18.00;99.90;;;;;;5033380;28;20126;-79
2023/07/10 06:22:11;;;;;;;9.80;2.67;;;18.00;99.90;;;;;;5046718;28;20488;-79
2023/07/10 06:24:38;;;;;;;3.88;1.90;;;18.00;99.90;;;;;;5046533;28;20410;-80
2023/07/10 06:27:05;;;;;;;6.75;2.28;;;18.00;99.90;;;;;;5047350;28;20044;-80
2023/07/10 06:29:32;;;;;;;7.05;1.95;;;18.10;99.90;;;;;;5047152;28;20054;-78
2023/07/10 06:31:58;;;;;;;8.00;2.20;;;18.10;99.90;;;;;;5039737;28;20056;-78
2023/07/10 06:34:23;;;;;;;6.95;2.15;;;18.20;99.90;;;;;;5054525;28;20033;-77
2023/07/10 06:36:49;;;;;;;7.72;2.45;;;18.20;99.90;;;;;;5065052;28;20245;-78
2023/07/10 06:39:15;;;;;;;3.15;1.80;;;18.30;99.90;;;;;;5065515;28;20091;-78
2023/07/10 06:41:40;;;;;;;5.88;1.98;;;18.30;99.90;;;;;;5041889;28;20045;-78
2023/07/10 06:44:06;;;;;;;6.68;2.15;;;18.30;99.90;;;;;;5063862;28;20390;-78
2023/07/10 06:46:32;;;;;;;8.73;2.05;;;18.40;99.90;;;;;;5054756;28;20348;-79
2023/07/10 06:48:57;;;;;;;4.70;2.90;;;18.40;99.90;;;;;;5059322;28;20033;-78
2023/07/10 06:51:23;;;;;;;10.02;1.95;;;18.40;99.90;;;;;;5060428;28;20050;-78
2023/07/10 06:53:49;;;;;;;5.85;2.95;;;18.50;99.90;;;;;;5063336;28;20033;-78
2023/07/10 06:56:14;;;;;;;3.50;1.83;;;18.50;99.90;;;;;;5052512;28;20042;-78
2023/07/10 06:58:40;;;;;;;5.68;1.67;;;18.50;99.90;;;;;;5062730;28;20457;-79
2023/07/10 07:01:05;;;;;;;8.10;2.78;;;18.50;99.90;;;;;;5037456;28;20353;-78
2023/07/10 07:03:31;;;;;;;8.20;2.63;;;18.50;99.90;;;;;;5051414;28;20040;-79
2023/07/10 07:05:57;;;;;;;6.85;2.63;;;18.60;99.90;;;;;;5033147;28;20045;-78
2023/07/10 07:08:23;;;;;;;5.45;1.88;;;18.60;99.90;;;;;;5059102;28;20082;-78
2023/07/10 07:10:51;;;;;;;6.28;1.52;;;18.70;99.90;;;;;;5045926;28;20059;-78
2023/07/10 07:13:17;;;;;;;8.68;3.00;;;18.70;99.90;;;;;;5064629;28;20088;-78
2023/07/10 07:15:44;;;;;;;9.45;2.72;;;18.70;99.90;;;;;;5044887;28;20056;-78
2023/07/10 07:18:11;;;;;;;8.18;1.98;;;18.70;99.90;;;;;;5044604;28;20091;-78
2023/07/10 07:20:38;;;;;;;6.70;2.10;;;18.70;99.90;;;;;;5045054;28;20053;-85
2023/07/10 07:23:03;;;;;;;7.93;2.55;;;18.70;99.90;;;;;;5053511;28;20033;-76
2023/07/10 07:25:30;;;;;;;9.45;2.13;;;18.80;99.90;;;;;;5057795;28;20041;-78
2023/07/10 07:27:59;;;;;;;7.35;2.45;;;18.80;99.90;;;;;;5046490;28;20075;-80
2023/07/10 07:30:25;;;;;;;8.98;2.72;;;18.80;99.90;;;;;;5064749;28;20071;-77
2023/07/10 07:32:50;;;;;;;4.82;1.67;;;18.90;99.90;;;;;;5084837;28;20401;-79
2023/07/10 07:35:16;;;;;;;12.13;2.80;;;18.90;99.90;;;;;;5084020;28;20044;-79
2023/07/10 07:37:42;;;;;;;6.95;2.30;;;18.90;99.90;;;;;;5059790;28;20230;-80
2023/07/10 07:40:09;;;;;;;7.28;2.65;;;19.00;99.90;;;;;;5044892;28;20044;-80
2023/07/10 07:42:35;;;;;;;6.80;2.58;;;19.00;99.90;;;;;;5056153;28;20048;-79
2023/07/10 07:45:01;;;;;;;5.47;1.90;;;19.00;99.90;;;;;;5046024;28;20040;-80
2023/07/10 07:47:27;;;;;;;4.78;2.42;;;19.00;99.90;;;;;;5064525;28;20083;-79
2023/07/10 07:49:53;;;;;;;7.78;2.25;;;19.10;99.90;;;;;;5064052;28;20050;-83
2023/07/10 07:52:18;;;;;;;8.02;2.70;;;19.00;99.90;;;;;;5063563;28;20266;-79
2023/07/10 07:54:44;;;;;;;9.77;3.58;;;19.10;99.90;;;;;;5028924;28;20426;-79
2023/07/10 07:57:10;;;;;;;9.30;3.20;;;19.10;99.90;;;;;;5045475;28;20043;-80
2023/07/10 07:59:35;;;;;;;5.22;2.63;;;19.10;99.90;;;;;;5063631;28;20042;-79
2023/07/10 08:02:01;;;;;;;9.55;2.40;;;19.10;99.90;;;;;;5044044;28;20332;-79
2023/07/10 08:04:26;;;;;;;10.15;3.70;;;19.20;99.90;;;;;;5064573;28;20406;-79
2023/07/10 08:06:52;;;;;;;6.03;2.33;;;19.20;99.90;;;;;;5063956;28;20040;-79
2023/07/10 08:09:18;;;;;;;7.82;1.80;;;19.20;99.90;;;;;;5062228;28;20049;-79
2023/07/10 08:11:43;;;;;;;6.70;2.65;;;19.20;99.90;;;;;;5045769;28;20052;-78
2023/07/10 08:14:09;;;;;;;8.20;2.45;;;19.30;99.90;;;;;;5042182;28;20046;-79
2023/07/10 08:16:35;;;;;;;3.72;2.50;;;19.30;99.90;;;;;;5050659;28;20036;-79
2023/07/10 08:19:01;;;;;;;8.70;2.78;;;19.40;99.90;;;;;;5039730;28;20041;-80
2023/07/10 08:21:27;;;;;;;4.47;2.25;;;19.50;99.90;;;;;;5055962;28;20112;-82
2023/07/10 08:23:52;;;;;;;11.38;2.90;;;19.50;99.90;;;;;;5062388;28;20052;-79
2023/07/10 08:26:18;;;;;;;5.93;2.25;;;19.50;99.90;;;;;;5061914;28;20039;-80
2023/07/10 08:28:43;;;;;;;6.10;2.38;;;19.60;99.90;;;;;;5045053;28;20480;-78
2023/07/10 08:31:09;;;;;;;6.10;1.98;;;19.60;99.90;;;;;;5045038;28;20173;-78
2023/07/10 08:33:35;;;;;;;11.32;2.88;;;19.60;99.90;;;;;;5026743;28;20123;-79
2023/07/10 08:36:03;;;;;;;10.15;2.28;;;19.60;99.90;;;;;;5051273;28;20044;-79
2023/07/10 08:38:30;;;;;;;4.57;2.42;;;19.70;99.90;;;;;;5017908;28;20055;-78
2023/07/10 08:41:01;;;;;;;8.60;2.88;;;19.70;99.90;;;;;;5074745;28;20076;-78
2023/07/10 08:43:35;;;;;;;6.80;2.22;;;19.70;99.90;;;;;;5051886;28;20479;-78
2023/07/10 08:46:09;;;;;;;10.20;3.38;;;19.70;99.90;;;;;;5044563;28;20131;-78
2023/07/10 08:48:36;;;;;;;4.75;1.88;;;19.80;99.90;;;;;;5045582;28;20048;-78
2023/07/10 08:51:31;;;;;;;7.13;2.15;;;19.90;99.90;;;;;;5063118;28;20418;-78
2023/07/10 08:54:13;;;;;;;5.55;2.42;;;19.90;99.90;;;;;;5007033;28;20116;-81
2023/07/10 08:57:00;;;;;;;6.15;1.65;;;19.90;99.90;;;;;;5034895;28;20125;-78
2023/07/10 08:59:42;;;;;;;9.70;2.58;;;19.80;99.90;;;;;;5063745;28;20041;-81
2023/07/10 09:02:18;;;;;;;;;;;19.80;99.90;;;;;;5040922;28;20114;-79
2023/07/10 09:04:45;;;;;;;6.60;1.63;;;19.90;99.90;;;;;;5063162;28;20014;-78
2023/07/10 09:07:12;;;;;;;5.40;1.80;;;20.00;99.90;;;;;;5044438;28;20118;-78
2023/07/10 09:09:47;;;;;;;3.28;1.33;;;20.10;99.90;;;;;;5044709;28;20095;-80
2023/07/10 09:12:12;;;;;;;8.32;2.00;;;20.20;99.90;;;;;;5043820;28;20056;-78
2023/07/10 09:14:46;;;;;;;4.15;1.80;;;20.20;99.90;;;;;;5063076;28;20571;-79
2023/07/10 09:17:29;;;;;;;8.85;2.20;;;20.20;99.90;;;;;;5062467;28;20329;-80
2023/07/10 09:19:57;;;;;;;8.98;2.78;;;20.30;99.90;;;;;;5063729;28;20037;-80
2023/07/10 09:22:23;;;;;;;8.07;2.42;;;20.30;99.90;;;;;;5043215;28;20052;-78
2023/07/10 09:24:48;;;;;;;6.90;1.80;;;20.30;99.90;;;;;;5042183;28;20044;-79
2023/07/10 09:27:15;;;;;;;8.77;3.10;;;20.30;99.90;;;;;;5061498;28;20041;-79
2023/07/10 09:29:43;;;;;;;5.18;2.03;;;20.30;99.90;;;;;;5057288;28;20032;-79
2023/07/10 09:32:12;;;;;;;3.95;2.20;;;20.30;99.90;;;;;;5082678;28;20036;-79
2023/07/10 09:34:45;;;;;;;13.98;2.47;;;20.30;99.90;;;;;;5083106;28;20036;-79
2023/07/10 09:37:14;;;;;;;6.82;2.10;;;20.30;99.90;;;;;;5063141;28;20036;-78
2023/07/10 09:39:40;;;;;;;8.32;2.83;;;20.30;99.90;;;;;;5027167;28;20044;-81
2023/07/10 09:42:13;;;;;;;4.63;2.15;;;20.30;99.90;;;;;;5042444;28;20064;-79
2023/07/10 09:44:46;;;;;;;4.05;1.80;;;20.30;99.90;;;;;;5065296;28;20036;-79
2023/07/10 09:47:14;;;;;;;5.07;1.92;;;20.30;99.90;;;;;;5064315;28;20032;-78
2023/07/10 09:50:00;;;;;;;10.50;2.30;;;20.30;99.90;;;;;;5050120;28;20250;-80
2023/07/10 09:52:39;;;;;;;6.53;2.03;;;20.40;99.90;;;;;;5055777;28;20041;-79
2023/07/10 09:55:08;;;;;;;9.60;2.30;;;20.50;99.90;;;;;;5050650;28;20048;-80
2023/07/10 09:57:47;;;;;;;9.20;2.33;;;20.50;99.90;;;;;;5052109;28;20099;-80
2023/07/10 10:00:16;;;;;;;3.03;1.70;;;20.40;99.90;;;;;;5060933;28;20058;-81
2023/07/10 10:03:00;;;;;;;9.38;3.20;;;20.40;99.90;;;;;;5056918;28;20499;-79
2023/07/10 10:05:26;;;;;;;5.47;2.05;;;20.40;99.90;;;;;;5065112;28;20044;-80
2023/07/10 10:08:00;;;;;;;7.05;2.30;;;20.40;99.90;;;;;;5066096;28;20033;-78
2023/07/10 10:10:34;;;;;;;6.75;2.15;;;20.40;99.90;;;;;;5055209;28;20052;-78
2023/07/10 10:13:27;;;;;;;6.78;1.45;;;20.40;99.90;;;;;;5047909;28;20048;-81
2023/07/10 10:16:16;;;;;;;7.22;1.98;;;20.40;99.90;;;;;;5058837;28;20056;-79
2023/07/10 10:19:04;;;;;;;6.10;1.90;;;20.40;99.90;;;;;;5035293;28;20111;-79
2023/07/10 10:21:32;;;;;;;3.15;1.63;;;20.40;99.90;;;;;;5031477;28;20043;-81
2023/07/10 10:24:04;;;;;;;4.80;2.42;;;20.50;99.90;;;;;;5017591;28;20055;-79
2023/07/10 10:26:55;;;;;;;10.50;2.40;;;20.50;99.90;;;;;;5037993;28;20109;-81
2023/07/10 10:29:58;;;;;;;3.67;1.58;;;20.60;99.90;;;;;;5027652;28;20531;-79
2023/07/10 10:32:38;;;;;;;6.07;1.98;;;20.60;99.90;;;;;;5059490;28;20073;-79
2023/07/10 10:35:08;;;;;;;5.45;1.65;;;20.70;99.90;;;;;;5046029;28;20044;-79
2023/07/10 10:37:42;;;;;;;4.95;1.60;;;20.70;99.90;;;;;;5030121;28;20056;-79
2023/07/10 10:40:25;;;;;;;5.28;1.40;;;20.70;99.90;;;;;;5028272;28;20472;-79
2023/07/10 10:43:16;;;;;;;6.25;1.65;;;20.70;99.90;;;;;;5033634;28;20079;-78
2023/07/10 10:45:51;;;;;;;5.47;1.42;;;20.70;99.90;;;;;;5063474;28;20083;-78
2023/07/10 10:48:36;;;;;;;3.42;1.63;;;20.70;99.90;;;;;;5039557;28;20152;-79
2023/07/10 10:51:23;;;;;;;2.50;1.60;;;20.70;99.90;;;;;;5038534;28;20442;-82
2023/07/10 10:53:52;;;;;;;7.82;1.40;;;20.80;99.90;;;;;;5039680;28;20041;-80
2023/07/10 10:56:17;;;;;;;2.67;1.17;;;20.80;99.90;;;;;;5052210;28;20063;-79
2023/07/10 10:58:52;;;;;;;7.43;2.15;;;20.90;99.90;;;;;;5035338;28;20038;-78
2023/07/10 11:01:45;;;;;;;4.82;1.27;;;20.90;99.90;;;;;;5037752;28;20375;-90
2023/07/10 11:04:19;;;;;;;3.72;1.70;;;21.00;99.90;;;;;;5036280;28;20076;-79
2023/07/10 11:06:48;;;;;;;2.90;1.33;;;21.00;99.90;;;;;;5070191;28;20502;-79
2023/07/10 11:09:20;;;;;;;6.40;1.23;;;21.00;99.90;;;;;;5043163;28;20071;-81
2023/07/10 11:11:46;;;;;;;2.55;1.20;;;21.00;99.90;;;;;;5053893;28;20056;-78
2023/07/10 11:14:12;;;;;;;4.53;1.15;;;21.00;99.90;;;;;;5055198;28;20044;-78
2023/07/10 11:16:38;;;;;;;4.90;1.38;;;21.00;99.90;;;;;;5037582;28;20048;-78
2023/07/10 11:19:05;;;;;;;5.53;1.45;;;21.00;99.90;;;;;;5044638;28;20123;-80
2023/07/10 11:21:32;;;;;;;1.85;1.40;;;21.00;99.90;;;;;;5043153;28;20402;-78
2023/07/10 11:24:12;;;;;;;4.70;1.52;;;21.00;99.90;;;;;;5046620;28;20048;-81
2023/07/10 11:26:37;;;;;;;5.88;1.30;;;21.10;99.90;;;;;;5044102;28;20052;-80
2023/07/10 11:29:28;;;;;;;1.33;1.08;;;21.10;99.90;;;;;;5045530;28;20044;-79
2023/07/10 11:31:55;;;;;;;3.30;1.40;;;21.00;99.90;;;;;;5042857;28;20044;-78
2023/07/10 11:34:30;;;;;;;3.80;1.85;;;20.90;99.90;;;;;;5052892;28;20047;-78
2023/07/10 11:36:57;;;;;;;4.47;1.60;;;20.80;99.90;;;;;;5041618;28;20573;-80
2023/07/10 11:39:36;;;;;;;4.85;1.42;;;20.80;99.90;;;;;;5060043;28;20036;-79
2023/07/10 11:42:02;;;;;;;4.47;1.05;;;20.90;99.90;;;;;;5056449;28;20097;-78
2023/07/10 11:44:28;;;;;;;3.28;1.10;;;20.90;99.90;;;;;;5045605;28;20045;-79
2023/07/10 11:47:04;;;;;;;2.40;1.00;;;21.00;99.90;;;;;;5062764;28;20131;-78
2023/07/10 11:49:35;;;;;;;3.83;1.08;;;21.10;99.90;;;;;;5060118;28;20487;-81
2023/07/10 11:52:13;;;;;;;2.80;1.00;;;21.20;99.90;;;;;;5012049;28;20128;-79
2023/07/10 11:54:41;;;;;;;2.80;1.15;;;21.40;99.90;;;;;;5033762;28;20045;-78
2023/07/10 11:57:14;;;;;;;1.65;0.90;;;21.40;99.90;;;;;;5029666;28;20045;-78
2023/07/10 11:59:52;;;;;;;3.88;1.25;;;21.50;99.90;;;;;;5026183;28;20048;-79
2023/07/10 12:02:31;;;;;;;2.05;1.10;;;21.40;99.90;;;;;;5036428;28;20574;-79
2023/07/10 12:05:02;;;;;;;1.17;1.08;;;21.40;99.90;;;;;;5045324;28;20129;-78
2023/07/10 12:07:28;;;;;;;3.83;0.97;;;21.30;99.90;;;;;;5051851;28;20036;-78
2023/07/10 12:09:59;;;;;;;9.07;1.15;;;21.20;99.90;;;;;;5054339;28;20040;-79
2023/07/10 12:12:32;;;;;;;5.28;1.10;;;21.20;99.90;;;;;;5060685;28;20572;-78
2023/07/10 12:15:01;;;;;;;1.90;0.60;;;21.20;99.90;;;;;;5065389;28;20040;-79
2023/07/10 12:17:30;;;;;;;3.88;0.93;;;21.10;99.90;;;;;;5063188;28;20055;-80
2023/07/10 12:19:59;;;;;;;3.05;0.75;;;21.20;99.90;;;;;;5043549;28;20063;-75
2023/07/10 12:22:29;;;;;;;6.85;1.10;;;21.20;99.90;;;;;;5068574;28;20751;-75
2023/07/10 12:25:00;;;;;;;1.35;0.73;;;21.20;99.90;;;;;;5083981;28;20048;-75
2023/07/10 12:27:32;;;;;;;3.47;0.80;;;21.20;99.90;;;;;;5034984;28;20044;-75
2023/07/10 12:29:58;;;;;;;3.13;0.80;;;21.20;99.90;;;;;;5058416;28;20036;-75
2023/07/10 12:32:25;;;;;;;2.15;0.85;;;21.10;99.90;;;;;;5063416;28;20036;-76
2023/07/10 12:34:53;;;;;;;3.67;0.73;;;21.10;99.90;;;;;;5061884;28;20089;-79
2023/07/10 12:37:19;;;;;;;3.47;0.75;;;21.10;99.90;;;;;;5026760;28;20053;-76
2023/07/10 12:39:48;;;;;;;1.45;0.80;;;21.10;99.90;;;;;;5058959;28;20661;-77
2023/07/10 12:42:30;;;;;;;0.90;0.45;;;21.10;99.90;;;;;;5057090;28;20221;-77
2023/07/10 12:44:56;;;;;;;5.53;1.63;;;21.10;99.90;;;;;;5042453;28;20052;-77
2023/07/10 12:47:21;;;;;;;1.48;0.73;;;21.00;99.90;;;;;;5045136;28;20036;-77
2023/07/10 12:49:58;;;;;;;0.88;0.70;;;21.00;99.90;;;;;;5041633;28;20145;-77
2023/07/10 12:52:26;;;;;;;7.07;1.05;;;21.00;99.90;;;;;;5061657;28;20053;-76
2023/07/10 12:54:53;;;;;;;2.45;0.90;;;21.00;99.90;;;;;;5042027;28;20497;-77